Windham, NH

5:05 PM EDT on July 30, 2015 (GMT -0400)
Carr Hill | | Change Station
CLOSE
Current Station
Personal Weather Station
Location: Windham, NH
Elevation: 463 ft
Nearby Weather Stations

Elev 463 ft 42.84 °N, 71.33 °W | Updated 3 seconds ago

Mostly Cloudy
Mostly Cloudy
82.6 °F
Feels Like 90 °F
N
7.0
Wind Variable Wind from SSW
Gusts 13.0 mph

Today
High -- | Low -- °F
--% Chance of Precip.
Yesterday
High -- | Low -- °F
Precip. -- in
5:34 AM 8:08 PM
Full, 100% visible
Pressure 29.77 in
Visibility 10.0 miles
Clouds Few 3600 ft
Scattered Clouds 6500 ft
Mostly Cloudy 11000 ft
Heat Index 90 °F
Dew Point 75 °F
Humidity 79%
Rainfall 0.00 in
Snow Depth Not available.
UV 2 out of 12
Pollen 4.80 out of 12
Air Quality Not available.
Flu Activity Not available.
METAR KASH 302101Z VRB03KT 10SM FEW036 SCT065 BKN110 29/23 A2974 RMK AO2 LTG DSNT W AND NW TSB20192055E2009 SLP079 6//// T02890233 56016

More Conditions Fewer Conditions

Pressure 29.77 in
Visibility 10.0 miles
Clouds Few 3600 ft
Scattered Clouds 6500 ft
Mostly Cloudy 11000 ft
Heat Index 90 °F
Dew Point 75 °F
Humidity 79%
Rainfall 0.00 in
Snow Depth Not available.
UV 2 out of 12
Pollen 4.80 out of 12
Air Quality Not available.
Flu Activity Not available.
METAR KASH 302101Z VRB03KT 10SM FEW036 SCT065 BKN110 29/23 A2974 RMK AO2 LTG DSNT W AND NW TSB20192055E2009 SLP079 6//// T02890233 56016

More Conditions Fewer Conditions

10-Day Weather Forecast

×

Almanac

Astronomy

Jul. 30, 2015 Rise Set
Actual Time
Civil Twilight
Nautical Twilight
Astronomical Twilight
Moon
Length of Visible Light
Length of Day
Tomorrow will be .
, % of the Moon is Illuminated

Today's Extremes

State Highs State Lows

Community

WunderPhotos

Upload Photos

1,842,500 photos uploaded!

WunderBlogs® & News

Nearby

Air Quality

  Air Quality AQ Index Pollutant
Not available.

Snow Depth

Station Depth Elevation

Earthquake Activity

City Distance Mag. Time & Date
Minimum magnitude displayed is 2.5.

Coastal Water Temperatures

Place Temperature

Stations

Nearby Weather Stations

Station Location Temp. Windchill Dew Point Humidity Wind Precip. Elev Updated Type